createdAt,value
2019-04-20T00:00:56.188Z,99082.48
2019-04-20T00:03:34.715Z,99084.03
2019-04-20T00:05:59.321Z,99082.87
2019-04-20T00:08:33.178Z,99076.59
2019-04-20T00:11:07.931Z,99076.33
2019-04-20T00:13:45.304Z,99072.21
2019-04-20T00:16:08.316Z,99069.34
2019-04-20T00:18:46.809Z,99072.37
2019-04-20T00:21:29.314Z,99070.37
2019-04-20T00:24:12.940Z,99070.11
2019-04-20T00:27:04.737Z,99073.62
2019-04-20T00:29:26.614Z,99075.19
2019-04-20T00:31:51.010Z,99069.86
2019-04-20T00:34:18.432Z,99068.81
2019-04-20T00:36:45.236Z,99057.00
2019-04-20T00:39:17.170Z,99067.47
2019-04-20T00:41:53.749Z,99068.52
2019-04-20T00:44:25.171Z,99067.89
2019-04-20T00:47:04.767Z,99064.75
2019-04-20T00:49:38.866Z,99071.31
2019-04-20T00:52:24.218Z,99070.38
2019-04-20T00:54:28.440Z,99057.80
2019-04-20T00:57:12.106Z,99069.66
2019-04-20T00:59:51.768Z,99065.06
2019-04-20T01:02:17.428Z,99064.15
2019-04-20T01:04:55.041Z,99061.81
2019-04-20T01:07:40.780Z,99060.31
2019-04-20T01:10:09.153Z,99064.65
2019-04-20T01:12:41.013Z,99062.99
2019-04-20T01:15:23.648Z,99062.74
2019-04-20T01:17:43.567Z,99069.30
2019-04-20T01:20:14.018Z,99067.48
2019-04-20T01:22:52.252Z,99068.34
2019-04-20T01:25:23.053Z,99069.11
2019-04-20T01:28:17.660Z,99066.95
2019-04-20T01:30:28.419Z,99075.00
2019-04-20T01:33:08.879Z,99074.87
2019-04-20T01:35:44.148Z,99077.77
2019-04-20T01:38:16.392Z,99076.98
2019-04-20T01:40:29.523Z,99071.13
2019-04-20T01:43:01.512Z,99077.85
2019-04-20T01:45:37.271Z,99081.48
2019-04-20T01:48:05.170Z,99078.42
2019-04-20T01:50:38.381Z,99076.78
2019-04-20T01:53:18.983Z,99076.97
2019-04-20T01:55:55.689Z,99076.19
2019-04-20T01:58:40.393Z,99080.66
2019-04-20T02:01:17.845Z,99079.70
2019-04-20T02:03:58.709Z,99078.63
2019-04-20T02:06:30.450Z,99077.02
2019-04-20T02:09:07.910Z,99077.59
2019-04-20T02:11:38.399Z,99081.83
2019-04-20T02:14:09.949Z,99080.41
2019-04-20T02:16:45.218Z,99077.18
2019-04-20T02:19:26.522Z,99082.20
2019-04-20T02:21:55.906Z,99077.55
2019-04-20T02:24:15.858Z,99091.70
2019-04-20T02:26:47.232Z,99088.45
2019-04-20T02:29:40.651Z,99083.80
2019-04-20T02:35:18.303Z,99080.73
2019-04-20T02:38:32.033Z,99082.64
2019-04-20T02:40:52.651Z,99081.79
2019-04-20T02:45:52.772Z,99081.91
2019-04-20T02:48:25.289Z,99084.04
2019-04-20T02:51:01.087Z,99081.36
2019-04-20T02:53:30.164Z,99081.84
2019-04-20T02:58:31.154Z,99080.56
2019-04-20T03:00:52.298Z,99079.05
2019-04-20T03:03:16.023Z,99081.45
2019-04-20T03:05:45.449Z,99076.14
2019-04-20T03:08:22.386Z,99078.11
2019-04-20T03:11:09.015Z,99081.38
2019-04-20T03:13:32.334Z,99080.34
2019-04-20T03:16:08.675Z,99075.08
2019-04-20T03:18:37.391Z,99079.98
2019-04-20T03:21:12.725Z,99077.94
2019-04-20T03:23:47.995Z,99073.98
2019-04-20T03:26:19.289Z,99075.44
2019-04-20T03:29:01.774Z,99081.35
2019-04-20T03:36:53.108Z,99081.94
2019-04-20T03:39:17.873Z,99087.91
2019-04-20T03:41:40.498Z,99088.83
2019-04-20T03:44:13.702Z,99082.59
2019-04-20T03:46:47.679Z,99082.70
2019-04-20T03:49:38.330Z,99083.38
2019-04-20T03:52:24.582Z,99082.28
2019-04-20T03:55:21.058Z,99081.70
2019-04-20T03:58:19.716Z,99081.77
2019-04-20T04:01:22.648Z,99088.14
2019-04-20T04:04:16.831Z,99086.73
2019-04-20T04:06:37.385Z,99087.46
2019-04-20T04:09:14.634Z,99086.40
2019-04-20T04:11:43.337Z,99074.77
2019-04-20T04:14:03.051Z,99087.07
2019-04-20T04:16:41.836Z,99087.31
2019-04-20T04:19:12.714Z,99080.63
2019-04-20T04:21:53.849Z,99080.91
2019-04-20T04:24:23.543Z,99083.88
2019-04-20T04:26:57.602Z,99077.34
2019-04-20T04:29:36.632Z,99081.75
2019-04-20T04:32:15.477Z,99078.56
2019-04-20T04:34:39.120Z,99082.57
2019-04-20T04:37:10.641Z,99083.58
2019-04-20T04:39:42.822Z,99087.49
2019-04-20T04:42:20.717Z,99084.50
2019-04-20T04:44:39.953Z,99087.31
2019-04-20T04:47:03.295Z,99097.81
2019-04-20T04:49:35.264Z,99097.64
2019-04-20T04:52:07.977Z,99099.33
2019-04-20T04:54:44.500Z,99098.12
2019-04-20T04:57:07.424Z,99104.13
2019-04-20T04:59:38.436Z,99102.63
2019-04-20T05:02:09.689Z,99102.92
2019-04-20T05:05:23.786Z,99101.61
2019-04-20T05:07:52.047Z,99101.80
2019-04-20T05:10:10.012Z,99111.02
2019-04-20T05:12:40.996Z,99104.10
2019-04-20T05:15:22.608Z,99102.50
2019-04-20T05:18:07.217Z,99105.12
2019-04-20T05:20:41.576Z,99112.05
2019-04-20T05:23:19.352Z,99114.37
2019-04-20T05:26:08.325Z,99112.88
2019-04-20T05:28:27.882Z,99113.05
2019-04-20T05:30:53.767Z,99116.56
2019-04-20T05:33:30.216Z,99100.30
2019-04-20T05:36:12.324Z,99101.70
2019-04-20T05:38:47.068Z,99106.42
2019-04-20T05:41:17.419Z,99109.72
2019-04-20T05:44:09.970Z,99105.61
2019-04-20T05:46:48.157Z,99102.49
2019-04-20T05:49:23.336Z,99103.70
2019-04-20T05:51:48.619Z,99110.23
2019-04-20T05:54:19.047Z,99105.12
2019-04-20T05:56:52.378Z,99099.68
2019-04-20T05:59:23.437Z,99102.59
2019-04-20T06:04:46.935Z,99107.02
2019-04-20T06:07:06.050Z,99108.55
2019-04-20T06:09:34.238Z,99110.04
2019-04-20T06:12:20.020Z,99109.12
2019-04-20T06:14:53.636Z,99108.71
2019-04-20T06:17:31.428Z,99108.88
2019-04-20T06:20:06.143Z,99102.98
2019-04-20T06:22:40.778Z,99110.18
2019-04-20T06:25:42.269Z,99106.87
2019-04-20T06:27:55.395Z,99111.67
2019-04-20T06:30:13.691Z,99111.02
2019-04-20T06:33:50.254Z,99120.89
2019-04-20T06:36:22.200Z,99111.02
2019-04-20T06:38:52.477Z,99124.59
2019-04-20T06:41:16.115Z,99127.52
2019-04-20T06:43:40.747Z,99124.69
2019-04-20T06:46:10.350Z,99126.88
2019-04-20T06:48:47.818Z,99129.19
2019-04-20T06:51:22.387Z,99120.27
2019-04-20T06:53:52.664Z,99128.23
2019-04-20T06:56:35.374Z,99125.29
2019-04-20T06:59:11.751Z,99121.77
2019-04-20T07:01:50.392Z,99122.83
2019-04-20T07:06:50.762Z,99119.05
2019-04-20T07:09:26.245Z,99116.43
2019-04-20T07:11:50.649Z,99111.70
2019-04-20T07:14:11.332Z,99117.33
2019-04-20T07:17:20.534Z,99120.27
2019-04-20T07:19:45.502Z,99116.29
2019-04-20T07:22:38.907Z,99119.28
2019-04-20T07:25:05.999Z,99112.92
2019-04-20T07:27:42.937Z,99114.48
2019-04-20T07:30:12.693Z,99116.06
2019-04-20T07:32:52.557Z,99121.16
2019-04-20T07:35:20.093Z,99116.72
2019-04-20T07:40:24.519Z,99113.91
2019-04-20T07:43:07.693Z,99112.11
2019-04-20T07:45:36.466Z,99107.59
2019-04-20T07:48:09.394Z,99106.91
2019-04-20T07:50:31.785Z,99106.91
2019-04-20T07:52:58.653Z,99102.50
2019-04-20T07:55:44.565Z,99104.34
2019-04-20T07:58:07.625Z,99105.14
2019-04-20T08:00:59.755Z,99106.52
2019-04-20T08:03:58.738Z,99107.25
2019-04-20T08:06:26.415Z,99108.09
2019-04-20T08:09:08.293Z,99103.53
2019-04-20T08:11:50.323Z,99110.72
2019-04-20T08:14:18.238Z,99101.95
2019-04-20T08:17:09.144Z,99100.81
2019-04-20T08:19:47.204Z,99104.89
2019-04-20T08:22:33.964Z,99104.89
2019-04-20T08:25:08.302Z,99098.77
2019-04-20T08:27:48.813Z,99101.48
2019-04-20T08:30:47.080Z,99098.08
2019-04-20T08:33:24.574Z,99097.34
2019-04-20T08:35:58.499Z,99093.30
2019-04-20T08:41:00.498Z,99090.51
2019-04-20T08:43:47.380Z,99094.55
2019-04-20T08:46:05.573Z,99083.42
2019-04-20T08:48:41.813Z,99083.01
2019-04-20T08:51:12.243Z,99081.51
2019-04-20T08:53:44.634Z,99079.92
2019-04-20T08:56:10.958Z,99081.54
2019-04-20T08:58:31.493Z,99083.44
2019-04-20T09:01:05.439Z,99082.25
2019-04-20T09:03:46.215Z,99077.25
2019-04-20T09:06:24.935Z,99070.20
2019-04-20T09:08:53.189Z,99070.30
2019-04-20T09:11:30.944Z,99077.30
2019-04-20T09:13:50.311Z,99073.29
2019-04-20T09:16:20.782Z,99071.69
2019-04-20T09:18:56.940Z,99075.83
2019-04-20T09:21:30.789Z,99068.56
2019-04-20T09:24:16.227Z,99060.52
2019-04-20T09:26:42.303Z,99061.59
2019-04-20T09:29:12.546Z,99062.98
2019-04-20T09:31:50.248Z,99065.44
2019-04-20T09:34:41.887Z,99062.44
2019-04-20T09:37:43.351Z,99065.42
2019-04-20T09:40:47.071Z,99062.55
2019-04-20T09:43:02.631Z,99055.22
2019-04-20T09:45:48.144Z,99052.77
2019-04-20T09:48:23.268Z,99056.11
2019-04-20T09:51:15.436Z,99052.17
2019-04-20T09:53:33.551Z,99049.92
2019-04-20T09:56:06.625Z,99051.45
2019-04-20T09:58:38.118Z,99045.49
2019-04-20T10:01:12.412Z,99048.31
2019-04-20T10:03:29.115Z,99042.16
2019-04-20T10:05:59.526Z,99035.27
2019-04-20T10:08:34.021Z,99031.30
2019-04-20T10:11:03.543Z,99031.61
2019-04-20T10:13:34.369Z,99024.02
2019-04-20T10:16:05.879Z,99032.91
2019-04-20T10:18:41.354Z,99027.19
2019-04-20T10:21:09.681Z,99016.58
2019-04-20T10:23:40.737Z,99018.42
2019-04-20T10:26:12.287Z,99017.82
2019-04-20T10:28:43.843Z,99016.03
2019-04-20T10:31:14.754Z,99020.45
2019-04-20T10:33:45.941Z,99016.98
2019-04-20T10:36:30.737Z,99011.22
2019-04-20T10:39:02.323Z,99017.94
2019-04-20T10:41:44.621Z,99009.45
2019-04-20T10:44:07.051Z,99003.95
2019-04-20T10:46:38.774Z,99000.70
2019-04-20T10:49:09.694Z,98993.59
2019-04-20T10:51:41.815Z,99004.31
2019-04-20T10:54:12.212Z,98997.83
2019-04-20T10:56:43.536Z,99003.03
2019-04-20T10:59:13.926Z,98998.81
2019-04-20T11:01:45.572Z,99001.19
2019-04-20T11:04:16.704Z,99003.77
2019-04-20T11:06:47.029Z,98997.05
2019-04-20T11:09:18.506Z,98996.55
2019-04-20T11:11:50.303Z,98995.91
2019-04-20T11:14:28.036Z,98999.17
2019-04-20T11:16:54.124Z,98990.39
2019-04-20T11:19:25.263Z,98987.37
2019-04-20T11:21:56.630Z,98981.05
2019-04-20T11:24:28.099Z,98977.19
2019-04-20T11:26:58.651Z,98982.16
2019-04-20T11:29:28.736Z,98968.70
2019-04-20T11:31:59.456Z,98977.56
2019-04-20T11:34:34.003Z,98973.75
2019-04-20T11:37:03.305Z,98968.30
2019-04-20T11:39:34.949Z,98971.23
2019-04-20T11:42:07.663Z,98962.52
2019-04-20T11:44:38.276Z,98959.75
2019-04-20T11:47:08.685Z,98962.08
2019-04-20T11:49:39.685Z,98965.37
2019-04-20T11:52:09.987Z,98961.25
2019-04-20T11:54:42.249Z,98959.16
2019-04-20T11:57:13.297Z,98952.23
2019-04-20T11:59:43.683Z,98953.80
2019-04-20T12:02:38.217Z,98948.80
2019-04-20T12:05:19.832Z,98949.33
2019-04-20T12:08:02.870Z,98949.80
2019-04-20T12:10:33.282Z,98941.50
2019-04-20T12:13:03.818Z,98948.22
2019-04-20T12:15:38.618Z,98946.81
2019-04-20T12:18:09.507Z,98949.89
2019-04-20T12:20:41.027Z,98937.30
2019-04-20T12:23:12.569Z,98939.17
2019-04-20T12:25:44.626Z,98954.41
2019-04-20T12:28:15.753Z,98935.72
2019-04-20T12:30:46.116Z,98931.14
2019-04-20T12:33:17.784Z,98930.97
2019-04-20T12:35:48.175Z,98927.88
2019-04-20T12:38:19.102Z,98925.34
2019-04-20T12:40:50.331Z,98917.63
2019-04-20T12:43:23.693Z,98932.89
2019-04-20T12:45:54.102Z,98916.39
2019-04-20T12:48:25.685Z,98909.67
2019-04-20T12:50:57.551Z,98922.84
2019-04-20T12:53:28.601Z,98921.61
2019-04-20T12:56:00.050Z,98914.52
2019-04-20T12:58:32.532Z,98917.52
2019-04-20T13:01:04.518Z,98909.30
2019-04-20T13:03:37.332Z,98891.64
2019-04-20T13:06:09.936Z,98905.38
2019-04-20T13:08:45.122Z,98906.62
2019-04-20T13:11:24.630Z,98901.70
2019-04-20T13:14:34.622Z,98889.83
2019-04-20T13:17:06.221Z,98898.91
2019-04-20T13:19:37.402Z,98894.83
2019-04-20T13:22:07.746Z,98894.04
2019-04-20T13:24:39.109Z,98898.72
2019-04-20T13:27:10.911Z,98887.12
2019-04-20T13:29:42.797Z,98886.59
2019-04-20T13:32:14.110Z,98880.69
2019-04-20T13:34:44.956Z,98877.38
2019-04-20T13:37:18.249Z,98875.31
2019-04-20T13:39:48.997Z,98879.27
2019-04-20T13:42:24.733Z,98876.84
2019-04-20T13:44:52.816Z,98870.91
2019-04-20T13:47:23.417Z,98868.91
2019-04-20T13:49:54.884Z,98868.53
2019-04-20T13:52:26.743Z,98863.23
2019-04-20T13:54:58.084Z,98853.25
2019-04-20T13:57:35.687Z,98852.00
2019-04-20T14:00:26.198Z,98855.20
2019-04-20T14:03:02.983Z,98844.48
2019-04-20T14:05:35.392Z,98845.15
2019-04-20T14:08:07.552Z,98840.38
2019-04-20T14:10:38.079Z,98840.27
2019-04-20T14:13:13.660Z,98828.69
2019-04-20T14:15:40.943Z,98839.38
2019-04-20T14:18:11.402Z,98827.86
2019-04-20T14:20:42.918Z,98826.91
2019-04-20T14:23:13.337Z,98821.61
2019-04-20T14:25:45.105Z,98827.69
2019-04-20T14:28:15.714Z,98822.94
2019-04-20T14:30:46.166Z,98816.13
2019-04-20T14:33:16.883Z,98813.13
2019-04-20T14:35:48.377Z,98810.01
2019-04-20T14:38:20.132Z,98810.38
2019-04-20T14:40:50.743Z,98810.01
2019-04-20T14:43:22.324Z,98803.66
2019-04-20T14:45:52.603Z,98796.47
2019-04-20T14:48:22.898Z,98805.39
2019-04-20T14:50:53.872Z,98793.77
2019-04-20T14:53:25.399Z,98802.39
2019-04-20T14:55:55.893Z,98795.61
2019-04-20T14:58:45.217Z,98788.30
2019-04-20T15:01:30.666Z,98786.11
2019-04-20T15:04:06.859Z,98788.23
2019-04-20T15:06:36.763Z,98789.05
2019-04-20T15:09:10.750Z,98785.69
2019-04-20T15:11:44.250Z,98784.73
2019-04-20T15:14:14.643Z,98783.20
2019-04-20T15:16:46.753Z,98771.88
2019-04-20T15:19:49.659Z,98775.83
2019-04-20T15:22:39.213Z,98765.67
2019-04-20T15:25:11.707Z,98771.53
2019-04-20T15:27:46.250Z,98760.27
2019-04-20T15:30:18.384Z,98760.70
2019-04-20T15:32:49.229Z,98761.08
2019-04-20T15:35:21.529Z,98764.65
2019-04-20T15:37:52.985Z,98760.94
2019-04-20T15:40:23.594Z,98760.84
2019-04-20T15:43:02.335Z,98752.02
2019-04-20T15:45:27.253Z,98750.27
2019-04-20T15:47:58.109Z,98735.63
2019-04-20T15:50:29.997Z,98739.12
2019-04-20T15:53:02.179Z,98744.88
2019-04-20T15:55:38.019Z,98752.43
2019-04-20T15:58:06.753Z,98750.66
2019-04-20T16:00:38.344Z,98752.35
2019-04-20T16:03:27.699Z,98750.25
2019-04-20T16:06:01.270Z,98745.39
2019-04-20T16:08:34.631Z,98737.73
2019-04-20T16:11:06.999Z,98733.02
2019-04-20T16:13:41.976Z,98734.77
2019-04-20T16:16:12.155Z,98731.83
2019-04-20T16:18:43.408Z,98728.70
2019-04-20T16:21:20.191Z,98729.50
2019-04-20T16:23:54.707Z,98724.95
2019-04-20T16:26:39.798Z,98732.42
2019-04-20T16:29:11.502Z,98727.71
2019-04-20T16:31:50.795Z,98721.25
2019-04-20T16:34:23.418Z,98721.18
2019-04-20T16:36:56.519Z,98718.19
2019-04-20T16:39:28.176Z,98711.97
2019-04-20T16:42:00.323Z,98712.61
2019-04-20T16:44:33.341Z,98711.56
2019-04-20T16:47:04.160Z,98714.53
2019-04-20T16:49:34.845Z,98713.13
2019-04-20T16:52:05.554Z,98711.55
2019-04-20T16:54:35.760Z,98704.14
2019-04-20T16:57:08.766Z,98706.89
2019-04-20T16:59:40.149Z,98706.06
2019-04-20T17:02:12.943Z,98703.53
2019-04-20T17:04:42.880Z,98699.91
2019-04-20T17:07:26.850Z,98701.48
2019-04-20T17:09:58.005Z,98698.16
2019-04-20T17:12:28.448Z,98690.87
2019-04-20T17:14:58.680Z,98695.97
2019-04-20T17:17:29.465Z,98686.66
2019-04-20T17:20:00.067Z,98694.53
2019-04-20T17:22:31.452Z,98693.73
2019-04-20T17:25:02.100Z,98697.19
2019-04-20T17:28:07.211Z,98691.59
2019-04-20T17:30:59.280Z,98696.70
2019-04-20T17:33:59.117Z,98697.00
2019-04-20T17:36:25.135Z,98699.43
2019-04-20T17:38:54.950Z,98696.83
2019-04-20T17:41:47.441Z,98699.19
2019-04-20T17:44:17.634Z,98700.72
2019-04-20T17:46:43.636Z,98699.95
2019-04-20T17:49:15.866Z,98697.11
2019-04-20T17:51:59.137Z,98701.67
2019-04-20T17:54:19.875Z,98703.63
2019-04-20T17:56:50.422Z,98705.94
2019-04-20T17:59:22.067Z,98703.36
2019-04-20T18:02:26.627Z,98712.98
2019-04-20T18:05:22.020Z,98708.98
2019-04-20T18:07:46.568Z,98711.61
2019-04-20T18:10:22.488Z,98713.67
2019-04-20T18:12:42.385Z,98718.73
2019-04-20T18:15:29.429Z,98713.19
2019-04-20T18:18:25.670Z,98712.95
2019-04-20T18:21:03.778Z,98718.48
2019-04-20T18:23:39.928Z,98716.42
2019-04-20T18:26:27.704Z,98713.11
2019-04-20T18:29:03.681Z,98721.63
2019-04-20T18:31:39.585Z,98720.99
2019-04-20T18:34:18.411Z,98723.91
2019-04-20T18:36:48.277Z,98724.23
2019-04-20T18:39:27.610Z,98737.61
2019-04-20T18:41:57.052Z,98736.14
2019-04-20T18:44:30.426Z,98740.45
2019-04-20T18:47:16.760Z,98740.27
2019-04-20T18:49:38.768Z,98738.76
2019-04-20T18:51:59.704Z,98746.19
2019-04-20T18:54:36.738Z,98749.37
2019-04-20T18:57:03.609Z,98744.63
2019-04-20T18:59:40.672Z,98747.95
2019-04-20T19:02:14.939Z,98757.54
2019-04-20T19:04:39.740Z,98757.14
2019-04-20T19:07:10.307Z,98758.14
2019-04-20T19:09:44.907Z,98758.42
2019-04-20T19:12:16.556Z,98753.75
2019-04-20T19:15:13.467Z,98762.51
2019-04-20T19:18:04.312Z,98759.58
2019-04-20T19:20:33.071Z,98759.44
2019-04-20T19:23:04.130Z,98762.66
2019-04-20T19:25:37.507Z,98764.11
2019-04-20T19:28:07.523Z,98759.88
2019-04-20T19:30:47.040Z,98767.34
2019-04-20T19:33:27.640Z,98758.08
2019-04-20T19:35:53.115Z,98755.89
2019-04-20T19:38:22.058Z,98753.81
2019-04-20T19:40:56.530Z,98754.75
2019-04-20T19:43:30.541Z,98757.38
2019-04-20T19:46:30.978Z,98758.02
2019-04-20T19:48:39.387Z,98757.36
2019-04-20T19:51:25.484Z,98759.13
2019-04-20T19:53:54.498Z,98766.56
2019-04-20T19:56:17.072Z,98773.20
2019-04-20T19:58:53.417Z,98765.71
2019-04-20T20:01:09.393Z,98764.43
2019-04-20T20:03:39.786Z,98767.70
2019-04-20T20:06:22.603Z,98766.28
2019-04-20T20:08:50.316Z,98768.15
2019-04-20T20:11:21.714Z,98767.14
2019-04-20T20:13:52.181Z,98769.22
2019-04-20T20:16:28.551Z,98772.88
2019-04-20T20:19:04.100Z,98769.02
2019-04-20T20:21:40.470Z,98768.16
2019-04-20T20:23:56.418Z,98771.18
2019-04-20T20:26:33.548Z,98772.61
2019-04-20T20:29:09.285Z,98780.27
2019-04-20T20:31:48.576Z,98778.19
2019-04-20T20:34:14.310Z,98777.73
2019-04-20T20:36:43.752Z,98777.16
2019-04-20T20:39:19.836Z,98778.07
2019-04-20T20:41:59.016Z,98782.72
2019-04-20T20:44:28.533Z,98774.37
2019-04-20T20:46:59.163Z,98776.55
2019-04-20T20:49:38.612Z,98777.32
2019-04-20T20:52:12.113Z,98776.33
2019-04-20T20:54:43.630Z,98780.39
2019-04-20T20:57:14.553Z,98779.92
2019-04-20T20:59:49.637Z,98775.92
2019-04-20T21:02:19.743Z,98776.70
2019-04-20T21:04:43.789Z,98777.56
2019-04-20T21:07:14.077Z,98774.87
2019-04-20T21:09:44.305Z,98769.47
2019-04-20T21:12:18.087Z,98769.22
2019-04-20T21:14:49.045Z,98771.39
2019-04-20T21:17:25.176Z,98768.44
2019-04-20T21:20:08.442Z,98766.84
2019-04-20T21:22:44.591Z,98763.86
2019-04-20T21:24:58.905Z,98765.77
2019-04-20T21:27:29.817Z,98768.48
2019-04-20T21:30:02.152Z,98764.95
2019-04-20T21:32:41.702Z,98765.52
2019-04-20T21:35:08.691Z,98763.09
2019-04-20T21:37:37.151Z,98757.69
2019-04-20T21:40:21.342Z,98754.45
2019-04-20T21:42:49.560Z,98754.45
2019-04-20T21:45:19.558Z,98758.77
2019-04-20T21:47:47.047Z,98748.52
2019-04-20T21:50:34.915Z,98743.94
2019-04-20T21:52:53.480Z,98741.46
2019-04-20T21:55:21.903Z,98741.72
2019-04-20T21:57:55.437Z,98737.69
2019-04-20T22:00:42.553Z,98732.01
2019-04-20T22:03:13.300Z,98741.69
2019-04-20T22:05:44.291Z,98732.52
2019-04-20T22:08:16.440Z,98731.12
2019-04-20T22:10:47.075Z,98727.86
2019-04-20T22:13:19.372Z,98741.31
2019-04-20T22:15:56.758Z,98738.36
2019-04-20T22:18:23.527Z,98734.83
2019-04-20T22:21:08.577Z,98741.81
2019-04-20T22:23:45.013Z,98738.27
2019-04-20T22:26:14.299Z,98733.13
2019-04-20T22:28:30.442Z,98742.56
2019-04-20T22:31:02.122Z,98742.05
2019-04-20T22:33:41.147Z,98748.98
2019-04-20T22:36:11.395Z,98738.44
2019-04-20T22:39:05.094Z,98737.09
2019-04-20T22:42:02.411Z,98742.19
2019-04-20T22:44:30.561Z,98743.17
2019-04-20T22:47:00.524Z,98741.05
2019-04-20T22:49:45.763Z,98740.17
2019-04-20T22:52:22.273Z,98730.42
2019-04-20T22:54:50.357Z,98724.53
2019-04-20T22:57:21.579Z,98722.23
2019-04-20T22:59:50.550Z,98722.67
2019-04-20T23:02:11.816Z,98722.39
2019-04-20T23:04:44.599Z,98732.03
2019-04-20T23:07:16.825Z,98721.21
2019-04-20T23:09:52.900Z,98724.19
2019-04-20T23:12:23.331Z,98718.81
2019-04-20T23:14:52.299Z,98712.91
2019-04-20T23:17:29.641Z,98720.92
2019-04-20T23:19:58.220Z,98720.59
2019-04-20T23:22:33.857Z,98717.03
2019-04-20T23:24:59.449Z,98719.95
2019-04-20T23:27:32.117Z,98718.90
2019-04-20T23:30:05.563Z,98719.11
2019-04-20T23:32:34.168Z,98710.50
2019-04-20T23:35:11.253Z,98717.71
2019-04-20T23:37:38.525Z,98714.44
2019-04-20T23:40:11.309Z,98715.08
2019-04-20T23:42:47.934Z,98713.42
2019-04-20T23:45:41.083Z,98713.62
2019-04-20T23:48:14.274Z,98718.89
2019-04-20T23:50:59.666Z,98712.11
2019-04-20T23:53:33.950Z,98714.24
2019-04-20T23:55:49.624Z,98710.70
2019-04-20T23:58:21.155Z,98710.38
